createdAt,value
2019-04-30T00:01:59.064Z,9.00
2019-04-30T00:04:34.583Z,9.03
2019-04-30T00:07:01.269Z,8.83
2019-04-30T00:09:30.957Z,9.27
2019-04-30T00:12:01.408Z,8.60
2019-04-30T00:14:37.246Z,8.17
2019-04-30T00:17:02.053Z,9.73
2019-04-30T00:19:31.477Z,10.43
2019-04-30T00:22:00.884Z,9.60
2019-04-30T00:24:30.310Z,9.87
2019-04-30T00:26:59.777Z,8.47
2019-04-30T00:29:30.948Z,8.07
2019-04-30T00:32:04.415Z,8.17
2019-04-30T00:34:37.899Z,7.87
2019-04-30T00:37:07.406Z,6.20
2019-04-30T00:39:35.509Z,5.60
2019-04-30T00:42:05.239Z,5.77
2019-04-30T00:44:35.679Z,5.90
2019-04-30T00:47:08.235Z,5.70
2019-04-30T00:49:37.805Z,5.70
2019-04-30T00:52:07.235Z,6.37
2019-04-30T00:54:36.621Z,6.90
2019-04-30T00:57:07.628Z,6.63
2019-04-30T00:59:39.741Z,7.40
2019-04-30T01:02:30.478Z,8.33
2019-04-30T01:05:05.093Z,9.23
2019-04-30T01:07:28.912Z,9.97
2019-04-30T01:09:58.305Z,9.73
2019-04-30T01:12:33.500Z,9.80
2019-04-30T01:14:59.052Z,10.27
2019-04-30T01:17:30.285Z,11.43
2019-04-30T01:20:00.032Z,10.10
2019-04-30T01:22:32.890Z,9.13
2019-04-30T01:25:08.010Z,9.47
2019-04-30T01:27:32.170Z,9.43
2019-04-30T01:30:02.103Z,10.27
2019-04-30T01:32:31.540Z,9.13
2019-04-30T01:35:01.002Z,8.90
2019-04-30T01:37:32.853Z,11.07
2019-04-30T01:40:03.198Z,9.97
2019-04-30T01:42:33.472Z,9.10
2019-04-30T01:45:03.046Z,7.50
2019-04-30T01:47:32.466Z,7.10
2019-04-30T01:50:04.851Z,7.23
2019-04-30T01:52:50.532Z,7.40
2019-04-30T01:55:22.202Z,7.13
2019-04-30T01:57:59.212Z,8.43
2019-04-30T02:00:35.947Z,8.43
2019-04-30T02:03:05.436Z,8.37
2019-04-30T02:05:34.829Z,7.70
2019-04-30T02:08:04.250Z,7.60
2019-04-30T02:10:33.638Z,7.60
2019-04-30T02:13:03.136Z,8.80
2019-04-30T02:15:32.539Z,9.30
2019-04-30T02:18:01.987Z,9.33
2019-04-30T02:20:31.387Z,12.80
2019-04-30T02:23:00.857Z,14.20
2019-04-30T02:25:30.259Z,14.33
2019-04-30T02:27:59.775Z,14.47
2019-04-30T02:30:30.866Z,15.73
2019-04-30T02:33:00.922Z,14.47
2019-04-30T02:35:40.961Z,14.70
2019-04-30T02:38:14.982Z,13.77
2019-04-30T02:40:45.125Z,15.20
2019-04-30T02:43:15.262Z,14.63
2019-04-30T02:45:49.605Z,12.53
2019-04-30T02:48:23.084Z,12.30
2019-04-30T02:50:54.514Z,12.60
2019-04-30T02:53:52.703Z,13.63
2019-04-30T02:56:26.554Z,14.20
2019-04-30T02:58:54.896Z,13.63
2019-04-30T03:01:24.339Z,14.20
2019-04-30T03:03:53.745Z,13.87
2019-04-30T03:06:23.676Z,14.10
2019-04-30T03:08:53.387Z,15.07
2019-04-30T03:11:22.911Z,13.60
2019-04-30T03:13:52.314Z,13.07
2019-04-30T03:16:23.399Z,12.93
2019-04-30T03:18:54.467Z,13.50
2019-04-30T03:21:41.828Z,12.77
2019-04-30T03:24:11.567Z,12.07
2019-04-30T03:26:41.038Z,13.00
2019-04-30T03:29:11.563Z,12.80
2019-04-30T03:31:44.432Z,12.03
2019-04-30T03:34:17.957Z,12.43
2019-04-30T03:36:43.404Z,12.20
2019-04-30T03:39:12.832Z,14.43
2019-04-30T03:41:42.303Z,13.43
2019-04-30T03:44:21.654Z,17.35
2019-04-30T03:46:42.912Z,15.17
2019-04-30T03:49:13.245Z,14.70
2019-04-30T03:51:43.106Z,16.10
2019-04-30T03:54:12.556Z,14.67
2019-04-30T03:56:42.732Z,15.50
2019-04-30T03:59:12.239Z,15.73
2019-04-30T04:01:49.883Z,14.73
2019-04-30T04:04:21.093Z,15.57
2019-04-30T04:07:00.032Z,15.57
2019-04-30T04:09:30.581Z,16.07
2019-04-30T04:12:20.410Z,16.33
2019-04-30T04:14:50.899Z,17.10
2019-04-30T04:17:21.765Z,17.47
2019-04-30T04:19:51.878Z,17.53
2019-04-30T04:22:21.579Z,16.80
2019-04-30T04:24:51.027Z,19.00
2019-04-30T04:27:20.550Z,17.20
2019-04-30T04:29:51.117Z,16.80
2019-04-30T04:32:24.237Z,16.33
2019-04-30T04:34:51.980Z,15.33
2019-04-30T04:37:21.415Z,16.73
2019-04-30T04:39:50.844Z,16.53
2019-04-30T04:42:20.248Z,15.53
2019-04-30T04:44:50.393Z,15.53
2019-04-30T04:47:20.419Z,15.77
2019-04-30T04:49:53.565Z,15.70
2019-04-30T04:52:21.965Z,17.13
2019-04-30T04:54:51.748Z,16.77
2019-04-30T04:57:22.657Z,19.33
2019-04-30T04:59:52.561Z,17.20
2019-04-30T05:02:39.915Z,18.87
2019-04-30T05:05:09.886Z,17.60
2019-04-30T05:07:39.946Z,16.73
2019-04-30T05:10:09.955Z,19.10
2019-04-30T05:12:39.846Z,18.43
2019-04-30T05:15:09.779Z,19.03
2019-04-30T05:17:39.815Z,18.63
2019-04-30T05:20:10.252Z,17.17
2019-04-30T05:22:39.623Z,18.23
2019-04-30T05:25:09.282Z,17.50
2019-04-30T05:27:39.290Z,17.53
2019-04-30T05:30:12.091Z,17.47
2019-04-30T05:32:40.636Z,17.90
2019-04-30T05:35:10.528Z,18.87
2019-04-30T05:37:39.934Z,18.27
2019-04-30T05:40:09.940Z,17.23
2019-04-30T05:42:39.352Z,17.10
2019-04-30T05:45:09.652Z,18.50
2019-04-30T05:47:39.364Z,18.00
2019-04-30T05:50:09.323Z,18.47
2019-04-30T05:52:39.780Z,16.83
2019-04-30T05:55:09.560Z,17.87
2019-04-30T05:57:52.439Z,18.83
2019-04-30T06:00:10.995Z,18.43
2019-04-30T06:02:40.402Z,17.73
2019-04-30T06:05:10.585Z,18.47
2019-04-30T06:07:40.165Z,19.83
2019-04-30T06:10:14.103Z,19.97
2019-04-30T06:12:49.344Z,20.43
2019-04-30T06:15:29.730Z,20.97
2019-04-30T06:18:04.009Z,21.67
2019-04-30T06:20:30.659Z,19.23
2019-04-30T06:23:00.312Z,21.57
2019-04-30T06:25:37.218Z,21.00
2019-04-30T06:28:02.382Z,19.70
2019-04-30T06:30:32.356Z,20.33
2019-04-30T06:33:02.502Z,20.67
2019-04-30T06:35:32.288Z,19.57
2019-04-30T06:38:01.699Z,17.87
2019-04-30T06:40:31.297Z,18.23
2019-04-30T06:43:01.071Z,18.37
2019-04-30T06:45:32.608Z,19.07
2019-04-30T06:48:03.825Z,19.33
2019-04-30T06:50:33.624Z,19.57
2019-04-30T06:53:03.030Z,17.70
2019-04-30T06:55:32.474Z,18.37
2019-04-30T06:58:11.879Z,18.70
2019-04-30T07:00:40.539Z,18.27
2019-04-30T07:03:10.111Z,17.37
2019-04-30T07:05:39.640Z,17.27
2019-04-30T07:08:36.110Z,16.30
2019-04-30T07:11:16.145Z,15.97
2019-04-30T07:13:47.202Z,16.20
2019-04-30T07:16:18.862Z,16.23
2019-04-30T07:18:48.878Z,14.53
2019-04-30T07:21:19.858Z,15.47
2019-04-30T07:23:49.391Z,14.90
2019-04-30T07:26:23.180Z,15.27
2019-04-30T07:28:54.877Z,15.00
2019-04-30T07:31:21.043Z,14.63
2019-04-30T07:33:53.559Z,14.87
2019-04-30T07:36:21.583Z,15.03
2019-04-30T07:38:56.165Z,14.10
2019-04-30T07:41:22.114Z,13.20
2019-04-30T07:43:51.517Z,13.20
2019-04-30T07:46:20.950Z,14.17
2019-04-30T07:48:50.431Z,12.53
2019-04-30T07:51:21.391Z,12.93
2019-04-30T07:53:50.962Z,13.00
2019-04-30T07:56:27.782Z,13.23
2019-04-30T07:58:51.497Z,12.70
2019-04-30T08:01:21.154Z,13.00
2019-04-30T08:03:59.046Z,12.90
2019-04-30T08:06:31.003Z,12.43
2019-04-30T08:09:01.274Z,12.33
2019-04-30T08:11:34.491Z,12.57
2019-04-30T08:14:02.563Z,11.80
2019-04-30T08:16:32.415Z,11.77
2019-04-30T08:19:01.830Z,11.67
2019-04-30T08:21:31.240Z,12.67
2019-04-30T08:24:01.275Z,12.17
2019-04-30T08:26:30.748Z,11.80
2019-04-30T08:29:00.200Z,10.83
2019-04-30T08:31:29.606Z,11.57
2019-04-30T08:33:59.251Z,11.20
2019-04-30T08:36:29.790Z,12.43
2019-04-30T08:39:01.311Z,12.00
2019-04-30T08:41:30.725Z,11.83
2019-04-30T08:44:00.160Z,12.00
2019-04-30T08:46:29.635Z,11.40
2019-04-30T08:51:34.403Z,10.90
2019-04-30T08:54:04.666Z,11.63
2019-04-30T08:56:34.070Z,11.23
2019-04-30T08:59:03.743Z,11.63
2019-04-30T09:01:33.296Z,10.87
2019-04-30T09:04:02.725Z,10.67
2019-04-30T09:06:32.132Z,11.57
2019-04-30T09:09:02.832Z,10.30
2019-04-30T09:11:48.840Z,11.17
2019-04-30T09:14:03.382Z,11.50
2019-04-30T09:16:32.835Z,11.37
2019-04-30T09:19:02.223Z,11.73
2019-04-30T09:21:31.743Z,11.20
2019-04-30T09:24:01.258Z,10.47
2019-04-30T09:26:30.694Z,9.17
2019-04-30T09:29:00.115Z,10.87
2019-04-30T09:31:29.846Z,11.33
2019-04-30T09:34:00.939Z,10.40
2019-04-30T09:36:30.627Z,11.23
2019-04-30T09:39:01.399Z,11.03
2019-04-30T09:41:31.040Z,12.43
2019-04-30T09:44:00.466Z,10.97
2019-04-30T09:46:30.155Z,10.50
2019-04-30T09:48:59.908Z,10.53
2019-04-30T09:51:30.914Z,11.30
2019-04-30T09:54:03.620Z,10.63
2019-04-30T09:56:31.703Z,11.00
2019-04-30T09:59:01.132Z,10.40
2019-04-30T10:01:32.746Z,10.43
2019-04-30T10:04:02.268Z,9.63
2019-04-30T10:06:39.738Z,10.70
2019-04-30T10:09:03.688Z,10.30
2019-04-30T10:11:34.778Z,10.90
2019-04-30T10:14:04.345Z,10.73
2019-04-30T10:16:35.402Z,9.83
2019-04-30T10:19:05.146Z,10.60
2019-04-30T10:21:34.571Z,11.10
2019-04-30T10:24:13.154Z,11.30
2019-04-30T10:26:35.424Z,10.98
2019-04-30T10:29:05.803Z,11.20
2019-04-30T10:31:35.223Z,10.00
2019-04-30T10:34:04.976Z,11.03
2019-04-30T10:36:34.402Z,11.15
2019-04-30T10:39:05.403Z,11.33
2019-04-30T10:41:35.007Z,11.50
2019-04-30T10:44:05.568Z,10.25
2019-04-30T10:46:35.175Z,10.68
2019-04-30T10:49:05.419Z,12.15
2019-04-30T10:51:34.837Z,11.43
2019-04-30T10:54:04.415Z,12.68
2019-04-30T10:56:34.683Z,13.20
2019-04-30T10:59:04.479Z,13.98
2019-04-30T11:01:34.037Z,14.75
2019-04-30T11:04:04.137Z,13.38
2019-04-30T11:06:33.563Z,11.73
2019-04-30T11:09:03.404Z,13.62
2019-04-30T11:11:32.809Z,13.72
2019-04-30T11:14:02.252Z,12.50
2019-04-30T11:16:31.653Z,12.90
2019-04-30T11:19:01.202Z,12.40
2019-04-30T11:21:30.813Z,12.43
2019-04-30T11:24:00.541Z,13.93
2019-04-30T11:26:31.958Z,13.95
2019-04-30T11:29:01.560Z,13.80
2019-04-30T11:31:33.045Z,11.35
2019-04-30T11:34:03.693Z,12.75
2019-04-30T11:36:33.245Z,12.30
2019-04-30T11:39:02.686Z,12.07
2019-04-30T11:41:33.327Z,12.58
2019-04-30T11:44:02.892Z,12.85
2019-04-30T11:46:38.697Z,12.45
2019-04-30T11:49:09.691Z,12.15
2019-04-30T11:51:39.328Z,13.40
2019-04-30T11:54:09.011Z,13.13
2019-04-30T11:56:38.487Z,14.03
2019-04-30T11:59:08.704Z,13.20
2019-04-30T12:01:39.017Z,12.50
2019-04-30T12:04:09.334Z,11.68
2019-04-30T12:06:39.478Z,12.55
2019-04-30T12:09:23.990Z,12.00
2019-04-30T12:11:53.406Z,12.43
2019-04-30T12:14:22.842Z,11.88
2019-04-30T12:16:52.252Z,12.70
2019-04-30T12:19:21.678Z,11.88
2019-04-30T12:21:51.079Z,12.43
2019-04-30T12:24:20.789Z,11.48
2019-04-30T12:26:50.269Z,11.25
2019-04-30T12:29:19.706Z,11.50
2019-04-30T12:31:49.123Z,11.93
2019-04-30T12:34:18.561Z,12.13
2019-04-30T12:36:49.677Z,11.33
2019-04-30T12:39:19.184Z,12.85
2019-04-30T12:41:48.963Z,12.30
2019-04-30T12:44:18.399Z,11.77
2019-04-30T12:46:48.613Z,10.57
2019-04-30T12:49:19.005Z,11.43
2019-04-30T12:51:52.912Z,11.10
2019-04-30T12:54:40.412Z,11.93
2019-04-30T12:57:14.410Z,11.17
2019-04-30T12:59:43.833Z,10.30
2019-04-30T13:02:13.246Z,10.90
2019-04-30T13:04:42.677Z,10.47
2019-04-30T13:07:13.011Z,8.83
2019-04-30T13:09:43.249Z,10.17
2019-04-30T13:12:13.625Z,9.13
2019-04-30T13:14:51.723Z,9.10
2019-04-30T13:17:15.020Z,11.20
2019-04-30T13:19:44.619Z,10.93
2019-04-30T13:22:14.023Z,10.60
2019-04-30T13:24:43.566Z,11.23
2019-04-30T13:27:12.947Z,10.00
2019-04-30T13:29:44.021Z,10.70
2019-04-30T13:32:13.423Z,12.27
2019-04-30T13:34:56.281Z,10.20
2019-04-30T13:37:28.961Z,10.90
2019-04-30T13:40:15.323Z,10.40
2019-04-30T13:42:46.377Z,11.00
2019-04-30T13:45:16.674Z,10.37
2019-04-30T13:47:46.213Z,10.60
2019-04-30T13:50:16.169Z,9.70
2019-04-30T13:52:45.580Z,10.10
2019-04-30T13:55:15.002Z,10.60
2019-04-30T13:57:44.402Z,9.20
2019-04-30T14:00:19.128Z,9.57
2019-04-30T14:02:50.170Z,8.00
2019-04-30T14:05:19.617Z,8.07
2019-04-30T14:08:06.043Z,7.53
2019-04-30T14:10:39.191Z,6.90
2019-04-30T14:13:09.533Z,7.20
2019-04-30T14:15:38.976Z,7.43
2019-04-30T14:18:09.330Z,7.33
2019-04-30T14:20:38.911Z,7.77
2019-04-30T14:23:08.579Z,8.50
2019-04-30T14:25:39.510Z,8.07
2019-04-30T14:28:09.494Z,8.37
2019-04-30T14:30:39.345Z,8.37
2019-04-30T14:33:09.441Z,8.50
2019-04-30T14:35:39.191Z,8.33
2019-04-30T14:38:09.058Z,8.57
2019-04-30T14:40:40.502Z,8.93
2019-04-30T14:43:12.650Z,8.70
2019-04-30T14:45:50.197Z,8.97
2019-04-30T14:48:39.208Z,8.10
2019-04-30T14:51:07.620Z,7.97
2019-04-30T14:53:41.429Z,7.67
2019-04-30T14:56:19.638Z,7.73
2019-04-30T14:59:00.135Z,8.67
2019-04-30T15:01:33.731Z,8.57
2019-04-30T15:04:03.120Z,8.40
2019-04-30T15:06:32.548Z,8.70
2019-04-30T15:09:01.957Z,8.67
2019-04-30T15:11:31.386Z,8.33
2019-04-30T15:14:00.794Z,8.57
2019-04-30T15:16:30.285Z,8.60
2019-04-30T15:18:59.696Z,8.27
2019-04-30T15:21:29.226Z,8.03
2019-04-30T15:24:01.647Z,7.40
2019-04-30T15:26:31.167Z,7.13
2019-04-30T15:29:00.568Z,7.37
2019-04-30T15:31:30.001Z,6.43
2019-04-30T15:34:03.709Z,7.40
2019-04-30T15:36:33.213Z,7.30
2019-04-30T15:39:10.065Z,6.70
2019-04-30T15:41:39.501Z,6.20
2019-04-30T15:44:08.977Z,6.40
2019-04-30T15:46:38.539Z,7.30
2019-04-30T15:49:08.122Z,7.30
2019-04-30T15:51:37.552Z,6.77
2019-04-30T15:54:07.205Z,6.60
2019-04-30T15:56:39.955Z,6.97
2019-04-30T15:59:21.231Z,6.20
2019-04-30T16:01:54.727Z,6.10
2019-04-30T16:04:25.767Z,7.37
2019-04-30T16:06:55.199Z,11.23
2019-04-30T16:09:42.465Z,7.00
2019-04-30T16:12:29.700Z,5.77
2019-04-30T16:14:59.132Z,6.33
2019-04-30T16:17:29.186Z,5.93
2019-04-30T16:19:58.737Z,6.23
2019-04-30T16:22:29.166Z,6.70
2019-04-30T16:25:00.444Z,6.87
2019-04-30T16:27:29.872Z,6.97
2019-04-30T16:29:59.567Z,6.60
2019-04-30T16:32:29.245Z,5.70
2019-04-30T16:34:59.285Z,6.43
2019-04-30T16:37:28.895Z,6.00
2019-04-30T16:39:58.224Z,6.37
2019-04-30T16:42:29.058Z,6.17
2019-04-30T16:45:00.529Z,6.30
2019-04-30T16:47:29.793Z,7.00
2019-04-30T16:49:59.227Z,5.93
2019-04-30T16:52:29.435Z,7.27
2019-04-30T16:54:58.957Z,8.13
2019-04-30T16:57:30.305Z,6.17
2019-04-30T16:59:59.550Z,5.80
2019-04-30T17:02:30.857Z,5.87
2019-04-30T17:05:04.918Z,5.30
2019-04-30T17:07:41.599Z,6.03
2019-04-30T17:10:15.336Z,6.00
2019-04-30T17:13:04.299Z,6.03
2019-04-30T17:15:35.597Z,6.43
2019-04-30T17:18:05.582Z,5.50
2019-04-30T17:20:34.996Z,6.23
2019-04-30T17:23:04.389Z,5.80
2019-04-30T17:25:35.215Z,5.47
2019-04-30T17:28:05.497Z,5.70
2019-04-30T17:30:34.985Z,5.17
2019-04-30T17:33:04.585Z,5.93
2019-04-30T17:35:34.029Z,6.00
2019-04-30T17:38:03.421Z,5.90
2019-04-30T17:40:32.835Z,5.70
2019-04-30T17:43:02.231Z,6.03
2019-04-30T17:45:31.726Z,6.10
2019-04-30T17:48:01.194Z,5.67
2019-04-30T17:50:30.591Z,5.80
2019-04-30T17:53:00.704Z,5.73
2019-04-30T17:55:30.259Z,5.00
2019-04-30T17:57:59.682Z,5.83
2019-04-30T18:00:30.711Z,5.57
2019-04-30T18:03:00.186Z,5.70
2019-04-30T18:05:29.587Z,6.10
2019-04-30T18:07:59.003Z,5.70
2019-04-30T18:10:28.766Z,6.03
2019-04-30T18:12:58.184Z,6.27
2019-04-30T18:15:29.230Z,6.30
2019-04-30T18:18:00.379Z,6.50
2019-04-30T18:20:39.103Z,6.53
2019-04-30T18:23:15.616Z,6.57
2019-04-30T18:25:46.675Z,7.10
2019-04-30T18:28:16.104Z,6.93
2019-04-30T18:30:45.516Z,6.93
2019-04-30T18:33:14.930Z,7.37
2019-04-30T18:35:44.328Z,7.07
2019-04-30T18:38:13.740Z,7.13
2019-04-30T18:40:43.148Z,7.00
2019-04-30T18:43:12.757Z,7.20
2019-04-30T18:45:42.158Z,6.50
2019-04-30T18:48:11.603Z,6.70
2019-04-30T18:50:40.993Z,6.53
2019-04-30T18:53:14.759Z,6.37
2019-04-30T18:55:44.166Z,6.40
2019-04-30T18:58:13.581Z,6.77
2019-04-30T19:00:44.562Z,6.80
2019-04-30T19:03:13.981Z,6.97
2019-04-30T19:05:45.100Z,7.27
2019-04-30T19:08:22.186Z,6.93
2019-04-30T19:10:56.375Z,7.70
2019-04-30T19:13:33.073Z,8.43
2019-04-30T19:16:24.709Z,12.97
2019-04-30T19:18:54.908Z,13.97
2019-04-30T19:21:24.474Z,16.00
2019-04-30T19:23:53.924Z,12.17
2019-04-30T19:26:26.587Z,9.60
2019-04-30T19:28:57.707Z,9.40
2019-04-30T19:31:29.472Z,8.57
2019-04-30T19:33:58.942Z,8.57
2019-04-30T19:36:37.186Z,8.93
2019-04-30T19:38:59.808Z,9.53
2019-04-30T19:41:29.421Z,10.13
2019-04-30T19:43:58.924Z,11.27
2019-04-30T19:46:29.418Z,10.40
2019-04-30T19:48:58.936Z,11.03
2019-04-30T19:51:29.644Z,11.83
2019-04-30T19:53:59.879Z,11.77
2019-04-30T19:56:32.505Z,10.87
2019-04-30T19:59:05.295Z,10.53
2019-04-30T20:01:31.655Z,11.10
2019-04-30T20:04:01.065Z,10.20
2019-04-30T20:06:30.487Z,10.37
2019-04-30T20:09:00.824Z,10.57
2019-04-30T20:11:30.314Z,11.10
2019-04-30T20:13:59.741Z,11.20
2019-04-30T20:16:29.178Z,11.07
2019-04-30T20:18:59.201Z,11.43
2019-04-30T20:21:45.403Z,11.20
2019-04-30T20:24:00.223Z,10.37
2019-04-30T20:26:29.657Z,9.73
2019-04-30T20:28:59.194Z,9.43
2019-04-30T20:31:28.844Z,9.07
2019-04-30T20:33:59.122Z,9.70
2019-04-30T20:36:29.374Z,9.50
2019-04-30T20:39:00.413Z,9.70
2019-04-30T20:41:31.555Z,9.70
2019-04-30T20:44:01.024Z,9.03
2019-04-30T20:46:35.045Z,9.10
2019-04-30T20:49:01.568Z,9.23
2019-04-30T20:51:31.074Z,11.63
2019-04-30T20:54:00.490Z,11.37
2019-04-30T20:56:29.982Z,11.43
2019-04-30T20:59:04.550Z,10.97
2019-04-30T21:01:30.526Z,10.67
2019-04-30T21:03:59.930Z,9.10
2019-04-30T21:06:29.817Z,10.20
2019-04-30T21:08:59.392Z,10.33
2019-04-30T21:11:28.824Z,10.00
2019-04-30T21:13:59.120Z,10.93
2019-04-30T21:16:28.574Z,10.83
2019-04-30T21:18:57.994Z,11.60
2019-04-30T21:21:28.737Z,10.40
2019-04-30T21:23:58.308Z,11.03
2019-04-30T21:26:27.751Z,10.10
2019-04-30T21:29:10.432Z,10.80
2019-04-30T21:31:46.072Z,10.57
2019-04-30T21:34:19.894Z,10.53
2019-04-30T21:36:49.653Z,10.43
2019-04-30T21:39:20.110Z,10.70
2019-04-30T21:41:49.633Z,10.53
2019-04-30T21:44:19.047Z,11.87
2019-04-30T21:46:48.471Z,13.13
2019-04-30T21:49:17.877Z,15.33
2019-04-30T21:51:47.315Z,16.50
2019-04-30T21:54:16.721Z,16.37
2019-04-30T21:56:46.179Z,15.50
2019-04-30T21:59:24.074Z,16.23
2019-04-30T22:01:46.818Z,15.33
2019-04-30T22:04:16.367Z,15.60
2019-04-30T22:06:46.019Z,13.40
2019-04-30T22:09:15.521Z,14.63
2019-04-30T22:11:44.922Z,13.80
2019-04-30T22:14:15.041Z,13.67
2019-04-30T22:16:44.487Z,14.80
2019-04-30T22:19:13.883Z,12.53
2019-04-30T22:21:43.285Z,13.87
2019-04-30T22:24:12.715Z,14.00
2019-04-30T22:26:42.127Z,13.77
2019-04-30T22:29:11.556Z,13.10
2019-04-30T22:31:40.978Z,13.77
2019-04-30T22:34:10.487Z,13.73
2019-04-30T22:36:41.547Z,13.00
2019-04-30T22:39:15.748Z,15.07
2019-04-30T22:41:45.140Z,16.03
2019-04-30T22:44:14.654Z,14.77
2019-04-30T22:46:44.137Z,14.27
2019-04-30T22:49:13.564Z,15.33
2019-04-30T22:51:42.977Z,14.77
2019-04-30T22:54:12.469Z,14.67
2019-04-30T22:56:41.887Z,15.33
2019-04-30T22:59:11.378Z,15.37
2019-04-30T23:02:00.238Z,16.90
2019-04-30T23:04:40.004Z,16.87
2019-04-30T23:07:09.564Z,19.73
2019-04-30T23:09:39.001Z,20.20
2019-04-30T23:12:08.419Z,20.70
2019-04-30T23:14:37.850Z,20.83
2019-04-30T23:17:07.608Z,21.17
2019-04-30T23:19:37.174Z,21.47
2019-04-30T23:22:06.596Z,21.27
2019-04-30T23:24:36.015Z,31.07
2019-04-30T23:27:05.426Z,36.30
2019-04-30T23:29:34.853Z,24.07
2019-04-30T23:32:04.264Z,22.70
2019-04-30T23:34:33.691Z,20.57
2019-04-30T23:37:03.204Z,19.77
2019-04-30T23:39:32.736Z,19.73
2019-04-30T23:42:02.149Z,18.97
2019-04-30T23:44:31.579Z,20.90
2019-04-30T23:47:00.995Z,19.63
2019-04-30T23:49:30.421Z,18.10
2019-04-30T23:51:59.844Z,18.73
2019-04-30T23:54:29.263Z,18.73
2019-04-30T23:56:58.681Z,20.30
2019-04-30T23:59:28.099Z,21.00
